createdAt,value
2022-12-19T00:02:07.060Z,59.77
2022-12-19T00:04:34.314Z,60.13
2022-12-19T00:07:01.092Z,66.63
2022-12-19T00:09:34.923Z,60.10
2022-12-19T00:12:02.402Z,61.07
2022-12-19T00:14:41.979Z,60.03
2022-12-19T00:17:14.884Z,62.03
2022-12-19T00:19:47.864Z,58.13
2022-12-19T00:22:14.472Z,65.13
2022-12-19T00:24:47.874Z,60.20
2022-12-19T00:27:14.513Z,62.57
2022-12-19T00:29:47.959Z,64.03
2022-12-19T00:32:14.571Z,60.87
2022-12-19T00:34:43.210Z,59.40
2022-12-19T00:37:17.999Z,59.77
2022-12-19T00:39:44.584Z,55.07
2022-12-19T00:42:11.175Z,60.43
2022-12-19T00:44:43.864Z,59.43
2022-12-19T00:47:10.461Z,53.10
2022-12-19T00:49:43.859Z,62.83
2022-12-19T00:52:11.463Z,52.93
2022-12-19T00:54:45.049Z,53.57
2022-12-19T00:57:11.812Z,61.63
2022-12-19T00:59:44.876Z,54.57
2022-12-19T01:02:11.551Z,55.40
2022-12-19T01:04:44.870Z,58.70
2022-12-19T01:07:11.596Z,51.90
2022-12-19T01:09:38.318Z,54.17
2022-12-19T01:12:31.842Z,54.80
2022-12-19T01:15:12.864Z,59.43
2022-12-19T01:17:46.063Z,60.67
2022-12-19T01:20:29.071Z,55.63
2022-12-19T01:22:56.720Z,56.40
2022-12-19T01:25:31.914Z,53.85
2022-12-19T01:27:59.986Z,58.57
2022-12-19T01:30:27.783Z,60.13
2022-12-19T01:33:03.876Z,56.35
2022-12-19T01:35:36.936Z,51.53
2022-12-19T01:38:08.710Z,65.30
2022-12-19T01:40:36.404Z,52.53
2022-12-19T01:43:09.935Z,56.63
2022-12-19T01:45:43.597Z,54.57
2022-12-19T01:48:39.909Z,57.43
2022-12-19T01:51:52.092Z,55.30
2022-12-19T01:54:29.887Z,52.17
2022-12-19T01:56:58.632Z,54.53
2022-12-19T01:59:38.836Z,54.60
2022-12-19T02:02:19.944Z,56.57
2022-12-19T02:04:54.912Z,51.20
2022-12-19T02:07:23.977Z,50.30
2022-12-19T02:09:57.376Z,53.42
2022-12-19T02:12:32.899Z,58.43
2022-12-19T02:15:07.958Z,50.80
2022-12-19T02:18:01.899Z,55.20
2022-12-19T02:21:02.880Z,55.87
2022-12-19T02:23:49.539Z,54.97
2022-12-19T02:26:52.849Z,57.20
2022-12-19T02:29:50.578Z,59.10
2022-12-19T02:32:36.157Z,50.53
2022-12-19T02:35:26.015Z,51.47
2022-12-19T02:38:17.855Z,57.65
2022-12-19T02:40:56.696Z,51.90
2022-12-19T02:43:31.846Z,52.60
2022-12-19T02:46:01.389Z,55.03
2022-12-19T02:48:35.892Z,54.22
2022-12-19T02:51:03.117Z,51.03
2022-12-19T02:53:35.926Z,53.57
2022-12-19T02:56:33.824Z,58.40
2022-12-19T02:59:46.961Z,55.60
2022-12-19T03:02:43.114Z,57.23
2022-12-19T03:05:24.936Z,53.80
2022-12-19T03:08:13.901Z,64.97
2022-12-19T03:10:45.651Z,54.93
2022-12-19T03:13:25.960Z,58.70
2022-12-19T03:15:59.846Z,57.13
2022-12-19T03:18:34.243Z,59.40
2022-12-19T03:21:21.843Z,54.90
2022-12-19T03:23:56.904Z,57.57
2022-12-19T03:26:34.852Z,58.67
2022-12-19T03:29:22.929Z,55.77
2022-12-19T03:31:50.234Z,55.87
2022-12-19T03:34:32.833Z,57.30
2022-12-19T03:37:03.510Z,53.80
2022-12-19T03:39:38.933Z,58.10
2022-12-19T03:42:25.926Z,52.13
2022-12-19T03:45:01.983Z,59.97
2022-12-19T03:47:35.883Z,58.03
2022-12-19T03:50:09.859Z,64.57
2022-12-19T03:52:48.919Z,53.63
2022-12-19T03:55:34.946Z,59.08
2022-12-19T03:58:15.864Z,54.97
2022-12-19T04:00:47.442Z,50.97
2022-12-19T04:03:23.990Z,61.53
2022-12-19T04:05:58.119Z,58.10
2022-12-19T04:08:31.821Z,48.73
2022-12-19T04:11:06.013Z,54.80
2022-12-19T04:13:50.932Z,58.50
2022-12-19T04:17:13.709Z,57.67
2022-12-19T04:20:12.913Z,59.10
2022-12-19T04:23:11.768Z,59.20
2022-12-19T04:25:49.890Z,53.13
2022-12-19T04:28:22.445Z,55.03
2022-12-19T04:30:55.973Z,56.87
2022-12-19T04:33:22.830Z,57.93
2022-12-19T04:35:49.470Z,51.17
2022-12-19T04:38:23.003Z,55.17
2022-12-19T04:40:55.914Z,53.03
2022-12-19T04:43:22.714Z,63.43
2022-12-19T04:45:57.764Z,53.30
2022-12-19T04:48:25.009Z,54.70
2022-12-19T04:50:58.940Z,52.97
2022-12-19T04:53:25.593Z,50.97
2022-12-19T04:56:12.936Z,49.20
2022-12-19T04:58:39.546Z,48.93
2022-12-19T05:01:08.231Z,56.13
2022-12-19T05:03:41.978Z,51.33
2022-12-19T05:06:11.346Z,46.43
2022-12-19T05:08:46.930Z,55.03
2022-12-19T05:11:19.517Z,52.97
2022-12-19T05:13:53.913Z,51.50
2022-12-19T05:16:26.964Z,45.43
2022-12-19T05:19:01.523Z,54.90
2022-12-19T05:21:34.913Z,52.73
2022-12-19T05:24:01.543Z,47.43
2022-12-19T05:26:28.159Z,48.97
2022-12-19T05:29:00.843Z,49.03
2022-12-19T05:31:33.939Z,49.13
2022-12-19T05:34:00.756Z,48.47
2022-12-19T05:36:33.852Z,48.37
2022-12-19T05:39:00.478Z,51.50
2022-12-19T05:41:33.839Z,47.17
2022-12-19T05:44:00.436Z,49.97
2022-12-19T05:46:33.986Z,49.90
2022-12-19T05:49:00.677Z,47.57
2022-12-19T05:51:27.373Z,52.37
2022-12-19T05:54:00.867Z,44.57
2022-12-19T05:56:33.837Z,48.43
2022-12-19T05:59:00.417Z,44.10
2022-12-19T06:01:37.187Z,43.53
2022-12-19T06:04:10.843Z,47.67
2022-12-19T06:06:43.905Z,49.20
2022-12-19T06:09:16.888Z,45.80
2022-12-19T06:11:43.538Z,45.53
2022-12-19T06:14:16.832Z,41.87
2022-12-19T06:16:49.840Z,46.30
2022-12-19T06:19:23.282Z,47.13
2022-12-19T06:21:56.864Z,48.33
2022-12-19T06:24:25.033Z,52.27
2022-12-19T06:26:51.641Z,45.03
2022-12-19T06:29:24.837Z,45.57
2022-12-19T06:31:58.010Z,49.40
2022-12-19T06:35:02.040Z,52.60
2022-12-19T06:37:23.815Z,46.83
2022-12-19T06:39:51.329Z,45.53
2022-12-19T06:42:29.866Z,48.20
2022-12-19T06:44:56.783Z,49.87
2022-12-19T06:47:30.895Z,44.67
2022-12-19T06:49:57.509Z,45.17
2022-12-19T06:52:24.171Z,48.07
2022-12-19T06:54:57.897Z,46.63
2022-12-19T06:57:24.515Z,43.80
2022-12-19T06:59:51.104Z,44.03
2022-12-19T07:02:39.139Z,40.73
2022-12-19T07:05:13.842Z,45.23
2022-12-19T07:07:47.885Z,36.30
2022-12-19T07:10:15.782Z,43.47
2022-12-19T07:12:42.403Z,41.43
2022-12-19T07:15:15.876Z,43.00
2022-12-19T07:17:48.848Z,40.20
2022-12-19T07:20:22.905Z,38.23
2022-12-19T07:22:49.647Z,43.60
2022-12-19T07:25:17.700Z,41.13
2022-12-19T07:27:51.819Z,44.70
2022-12-19T07:30:18.898Z,44.33
2022-12-19T07:32:51.901Z,43.50
2022-12-19T07:35:18.506Z,48.97
2022-12-19T07:37:45.189Z,47.80
2022-12-19T07:40:18.827Z,42.17
2022-12-19T07:42:45.934Z,38.87
2022-12-19T07:45:12.582Z,38.93
2022-12-19T07:47:45.854Z,40.90
2022-12-19T07:50:18.832Z,45.77
2022-12-19T07:52:45.462Z,45.93
2022-12-19T07:55:18.789Z,41.57
2022-12-19T07:57:45.390Z,38.80
2022-12-19T08:00:18.883Z,41.13
2022-12-19T08:02:45.984Z,36.77
2022-12-19T08:05:12.713Z,46.40
2022-12-19T08:07:46.806Z,40.87
2022-12-19T08:10:21.896Z,41.23
2022-12-19T08:12:48.819Z,41.87
2022-12-19T08:15:15.569Z,42.33
2022-12-19T08:17:48.850Z,46.03
2022-12-19T08:20:28.882Z,46.43
2022-12-19T08:22:55.487Z,44.15
2022-12-19T08:25:22.068Z,42.30
2022-12-19T08:27:54.847Z,47.47
2022-12-19T08:30:21.461Z,44.00
2022-12-19T08:32:48.263Z,42.93
2022-12-19T08:35:21.811Z,39.70
2022-12-19T08:37:48.408Z,42.47
2022-12-19T08:40:15.050Z,39.90
2022-12-19T08:42:47.819Z,44.73
2022-12-19T08:45:20.813Z,42.43
2022-12-19T08:47:47.444Z,39.67
2022-12-19T08:50:20.827Z,35.57
2022-12-19T08:52:47.490Z,39.00
2022-12-19T08:55:20.833Z,44.53
2022-12-19T08:57:53.829Z,37.90
2022-12-19T09:00:27.843Z,43.17
2022-12-19T09:02:54.985Z,40.53
2022-12-19T09:06:01.392Z,39.27
2022-12-19T09:08:14.429Z,41.00
2022-12-19T09:10:48.020Z,41.50
2022-12-19T09:13:20.860Z,44.10
2022-12-19T09:15:47.430Z,45.40
2022-12-19T09:18:27.939Z,44.97
2022-12-19T09:20:55.788Z,37.23
2022-12-19T09:23:30.893Z,41.57
2022-12-19T09:26:05.771Z,42.30
2022-12-19T09:28:38.827Z,35.30
2022-12-19T09:31:14.940Z,40.05
2022-12-19T09:33:48.815Z,44.65
2022-12-19T09:36:24.802Z,38.47
2022-12-19T09:39:00.884Z,44.83
2022-12-19T09:41:41.541Z,35.25
2022-12-19T09:44:23.826Z,39.03
2022-12-19T09:47:24.582Z,41.75
2022-12-19T09:50:00.813Z,35.45
2022-12-19T09:52:47.791Z,36.35
2022-12-19T09:55:23.798Z,40.78
2022-12-19T09:58:22.920Z,42.72
2022-12-19T10:00:58.123Z,38.67
2022-12-19T10:03:40.430Z,36.72
2022-12-19T10:07:08.711Z,39.17
2022-12-19T10:13:00.066Z,41.78
2022-12-19T10:16:00.212Z,42.40
2022-12-19T10:19:03.868Z,43.15
2022-12-19T10:25:09.639Z,42.13
2022-12-19T10:28:14.080Z,38.35
2022-12-19T10:30:56.991Z,37.70
2022-12-19T10:33:32.476Z,41.28
2022-12-19T10:36:07.816Z,37.35
2022-12-19T10:38:51.716Z,39.65
2022-12-19T10:41:39.306Z,45.10
2022-12-19T10:44:13.286Z,41.90
2022-12-19T10:46:52.909Z,39.88
2022-12-19T10:49:22.560Z,35.42
2022-12-19T10:52:14.891Z,39.47
2022-12-19T10:54:43.866Z,38.63
2022-12-19T10:57:31.849Z,36.83
2022-12-19T11:00:05.285Z,41.80
2022-12-19T11:02:49.897Z,39.55
2022-12-19T11:05:30.682Z,41.60
2022-12-19T11:08:21.903Z,41.45
2022-12-19T11:12:12.967Z,39.22
2022-12-19T11:19:28.646Z,36.90
2022-12-19T11:27:03.940Z,33.80
2022-12-19T11:29:36.867Z,35.13
2022-12-19T11:29:44.963Z,38.78
2022-12-19T11:29:55.171Z,36.90
2022-12-19T11:30:38.375Z,40.78
2022-12-19T11:34:29.882Z,29.02
2022-12-19T11:37:27.914Z,40.45
2022-12-19T11:40:23.812Z,34.83
2022-12-19T11:43:42.698Z,36.75
2022-12-19T11:46:40.624Z,36.03
2022-12-19T11:49:33.795Z,37.85
2022-12-19T11:53:02.804Z,38.08
2022-12-19T11:55:32.278Z,40.95
2022-12-19T11:58:05.803Z,36.83
2022-12-19T12:00:34.792Z,39.40
2022-12-19T12:03:21.880Z,42.40
2022-12-19T12:05:49.918Z,40.83
2022-12-19T12:11:51.769Z,36.35
2022-12-19T12:15:39.615Z,37.17
2022-12-19T12:28:47.925Z,36.55
2022-12-19T12:31:21.282Z,40.45
2022-12-19T12:31:27.720Z,38.65
2022-12-19T12:31:53.912Z,38.83
2022-12-19T12:31:57.250Z,43.03
2022-12-19T12:35:34.426Z,40.95
2022-12-19T12:38:18.769Z,40.40
2022-12-19T12:41:16.841Z,37.38
2022-12-19T12:44:08.195Z,38.97
2022-12-19T12:46:46.852Z,34.75
2022-12-19T12:49:44.828Z,38.65
2022-12-19T12:52:27.782Z,40.90
2022-12-19T12:54:55.482Z,41.38
2022-12-19T12:57:42.799Z,35.80
2022-12-19T13:00:29.855Z,39.47
2022-12-19T13:03:17.943Z,42.78
2022-12-19T13:05:53.808Z,39.55
2022-12-19T13:08:31.383Z,44.38
2022-12-19T13:11:44.778Z,42.25
2022-12-19T13:14:37.030Z,44.53
2022-12-19T13:17:38.812Z,43.45
2022-12-19T13:20:49.878Z,46.58
2022-12-19T13:23:36.856Z,46.53
2022-12-19T13:26:04.668Z,54.20
2022-12-19T13:28:31.257Z,46.92
2022-12-19T13:31:21.329Z,48.00
2022-12-19T13:33:58.846Z,47.83
2022-12-19T13:39:48.236Z,49.13
2022-12-19T13:40:12.085Z,53.20
2022-12-19T13:43:13.724Z,59.65
2022-12-19T13:45:49.828Z,54.53
2022-12-19T13:48:24.403Z,56.80
2022-12-19T13:50:57.808Z,61.13
2022-12-19T13:53:29.684Z,52.83
2022-12-19T13:56:08.839Z,52.85
2022-12-19T13:59:00.799Z,61.95
2022-12-19T14:01:38.970Z,58.17
2022-12-19T14:04:30.914Z,62.30
2022-12-19T14:07:36.652Z,52.22
2022-12-19T14:11:37.249Z,57.47
2022-12-19T14:13:52.495Z,62.35
2022-12-19T14:16:20.905Z,60.28
2022-12-19T14:19:14.772Z,57.55
2022-12-19T14:22:09.023Z,57.35
2022-12-19T14:24:34.853Z,52.70
2022-12-19T14:28:21.478Z,58.47
2022-12-19T14:30:28.762Z,55.00
2022-12-19T14:33:45.928Z,63.42
2022-12-19T14:36:11.293Z,53.63
2022-12-19T14:39:22.762Z,60.67
2022-12-19T14:42:03.453Z,56.60
2022-12-19T14:54:07.297Z,61.47
2022-12-19T14:54:10.033Z,56.67
2022-12-19T14:54:10.726Z,53.95
2022-12-19T14:54:28.914Z,61.58
2022-12-19T14:56:53.776Z,61.55
2022-12-19T14:59:36.623Z,59.72
2022-12-19T15:02:34.939Z,58.00
2022-12-19T15:05:13.715Z,64.25
2022-12-19T15:07:51.857Z,60.05
2022-12-19T15:11:05.452Z,62.80
2022-12-19T15:14:54.465Z,59.38
2022-12-19T15:16:31.853Z,54.78
2022-12-19T15:19:18.902Z,61.30
2022-12-19T15:21:45.945Z,62.72
2022-12-19T15:24:18.774Z,62.50
2022-12-19T15:26:52.188Z,59.67
2022-12-19T15:29:25.804Z,61.83
2022-12-19T15:31:59.125Z,57.03
2022-12-19T15:34:48.192Z,82.20
2022-12-19T15:37:23.811Z,85.78
2022-12-19T15:39:56.833Z,69.32
2022-12-19T15:42:26.774Z,66.72
2022-12-19T15:45:02.904Z,63.20
2022-12-19T15:47:35.283Z,67.07
2022-12-19T15:50:11.796Z,59.17
2022-12-19T15:52:38.538Z,59.22
2022-12-19T15:55:12.836Z,62.88
2022-12-19T15:58:05.269Z,60.10
2022-12-19T16:00:41.778Z,61.83
2022-12-19T16:03:23.524Z,60.67
2022-12-19T16:05:57.818Z,59.78
2022-12-19T16:08:26.175Z,56.92
2022-12-19T16:11:02.819Z,55.55
2022-12-19T16:13:32.188Z,54.88
2022-12-19T16:15:59.394Z,64.18
2022-12-19T16:18:32.849Z,61.08
2022-12-19T16:21:12.774Z,60.55
2022-12-19T16:23:39.391Z,58.33
2022-12-19T16:26:18.877Z,57.70
2022-12-19T16:28:51.844Z,55.78
2022-12-19T16:31:23.480Z,56.20
2022-12-19T16:33:50.314Z,59.72
2022-12-19T16:36:23.804Z,55.75
2022-12-19T16:38:56.856Z,53.17
2022-12-19T16:41:26.042Z,57.40
2022-12-19T16:43:52.935Z,56.70
2022-12-19T16:46:28.797Z,54.83
2022-12-19T16:48:55.406Z,55.53
2022-12-19T16:51:24.535Z,51.45
2022-12-19T16:54:00.935Z,54.70
2022-12-19T16:56:41.962Z,51.55
2022-12-19T16:59:29.116Z,54.38
2022-12-19T17:02:03.288Z,56.78
2022-12-19T17:04:30.137Z,67.53
2022-12-19T17:06:56.939Z,57.97
2022-12-19T17:09:31.845Z,59.78
2022-12-19T17:12:06.771Z,56.30
2022-12-19T17:14:33.513Z,53.75
2022-12-19T17:17:06.834Z,61.80
2022-12-19T17:19:47.785Z,58.20
2022-12-19T17:22:16.004Z,53.92
2022-12-19T17:24:51.762Z,61.20
2022-12-19T17:27:19.280Z,69.13
2022-12-19T17:29:53.822Z,60.55
2022-12-19T17:32:26.815Z,54.72
2022-12-19T17:34:59.751Z,58.20
2022-12-19T17:37:26.365Z,61.78
2022-12-19T17:39:59.830Z,59.63
2022-12-19T17:42:30.812Z,53.30
2022-12-19T17:45:06.859Z,58.63
2022-12-19T17:47:33.466Z,58.13
2022-12-19T17:50:06.845Z,61.95
2022-12-19T17:52:42.796Z,58.83
2022-12-19T17:55:33.092Z,56.17
2022-12-19T18:00:35.777Z,54.42
2022-12-19T18:03:26.229Z,60.80
2022-12-19T18:06:03.214Z,56.60
2022-12-19T18:08:33.388Z,58.95
2022-12-19T18:11:09.899Z,60.45
2022-12-19T18:13:36.507Z,62.83
2022-12-19T18:16:09.855Z,60.22
2022-12-19T18:18:42.817Z,61.58
2022-12-19T18:21:24.808Z,51.15
2022-12-19T18:23:51.763Z,58.40
2022-12-19T18:26:24.834Z,59.53
2022-12-19T18:28:51.481Z,58.70
2022-12-19T18:31:31.895Z,56.60
2022-12-19T18:34:07.091Z,59.50
2022-12-19T18:36:46.841Z,61.60
2022-12-19T18:39:20.723Z,59.75
2022-12-19T18:41:54.855Z,61.03
2022-12-19T18:44:23.069Z,55.35
2022-12-19T18:46:57.749Z,53.35
2022-12-19T18:49:24.399Z,53.88
2022-12-19T18:51:57.816Z,54.63
2022-12-19T18:54:25.236Z,63.97
2022-12-19T18:56:52.018Z,58.88
2022-12-19T18:59:31.766Z,56.60
2022-12-19T19:02:05.856Z,61.30
2022-12-19T19:04:32.501Z,51.92
2022-12-19T19:07:05.844Z,55.13
2022-12-19T19:09:32.460Z,58.65
2022-12-19T19:12:05.844Z,60.42
2022-12-19T19:14:32.428Z,61.80
2022-12-19T19:16:59.113Z,60.38
2022-12-19T19:19:32.747Z,60.95
2022-12-19T19:22:05.789Z,54.15
2022-12-19T19:24:32.424Z,58.05
2022-12-19T19:27:05.833Z,57.15
2022-12-19T19:29:38.789Z,56.80
2022-12-19T19:32:11.812Z,63.83
2022-12-19T19:34:40.961Z,56.92
2022-12-19T19:37:10.719Z,60.00
2022-12-19T19:39:43.766Z,59.45
2022-12-19T19:42:16.792Z,56.85
2022-12-19T19:44:50.210Z,63.38
2022-12-19T19:47:23.793Z,53.00
2022-12-19T19:49:50.431Z,54.75
2022-12-19T19:52:23.743Z,56.38
2022-12-19T19:54:50.376Z,58.08
2022-12-19T19:57:23.824Z,62.42
2022-12-19T19:59:50.750Z,63.95
2022-12-19T20:02:24.999Z,63.00
2022-12-19T20:04:58.758Z,60.50
2022-12-19T20:07:25.343Z,74.40
2022-12-19T20:09:58.798Z,70.00
2022-12-19T20:12:25.434Z,65.28
2022-12-19T20:14:52.048Z,54.50
2022-12-19T20:17:25.808Z,44.17
2022-12-19T20:19:58.783Z,48.13
2022-12-19T20:22:38.797Z,43.88
2022-12-19T20:25:11.865Z,49.65
2022-12-19T20:27:38.494Z,50.28
2022-12-19T20:30:06.721Z,51.30
2022-12-19T20:32:39.746Z,44.55
2022-12-19T20:35:15.017Z,46.25
2022-12-19T20:37:48.743Z,49.85
2022-12-19T20:40:21.855Z,50.28
2022-12-19T20:42:48.469Z,45.38
2022-12-19T20:45:15.095Z,45.72
2022-12-19T20:47:48.753Z,42.53
2022-12-19T20:50:22.806Z,48.60
2022-12-19T20:52:49.488Z,43.30
2022-12-19T20:55:16.309Z,44.53
2022-12-19T20:57:49.793Z,46.08
2022-12-19T21:00:17.926Z,48.97
2022-12-19T21:03:25.785Z,49.60
2022-12-19T21:05:37.817Z,50.78
2022-12-19T21:08:05.526Z,48.65
2022-12-19T21:10:32.118Z,52.20
2022-12-19T21:13:05.740Z,52.63
2022-12-19T21:15:40.916Z,48.05
2022-12-19T21:18:13.805Z,47.58
2022-12-19T21:20:54.798Z,47.45
2022-12-19T21:23:22.759Z,46.88
2022-12-19T21:25:49.602Z,48.03
2022-12-19T21:28:23.043Z,45.50
2022-12-19T21:31:13.900Z,46.42
2022-12-19T21:33:47.820Z,47.05
2022-12-19T21:36:21.115Z,49.45
2022-12-19T21:38:56.771Z,45.45
2022-12-19T21:41:30.858Z,49.40
2022-12-19T21:44:00.365Z,49.05
2022-12-19T21:46:29.738Z,52.13
2022-12-19T21:49:04.741Z,47.70
2022-12-19T21:51:38.828Z,47.60
2022-12-19T21:54:13.800Z,48.58
2022-12-19T21:56:40.771Z,46.60
2022-12-19T21:59:18.757Z,50.35
2022-12-19T22:01:51.867Z,45.70
2022-12-19T22:04:21.578Z,43.50
2022-12-19T22:06:56.733Z,46.72
2022-12-19T22:09:24.476Z,47.65
2022-12-19T22:11:57.767Z,50.35
2022-12-19T22:14:24.466Z,47.40
2022-12-19T22:16:58.819Z,45.25
2022-12-19T22:19:31.752Z,47.22
2022-12-19T22:21:58.405Z,51.63
2022-12-19T22:24:31.785Z,45.17
2022-12-19T22:27:04.977Z,49.45
2022-12-19T22:29:36.304Z,50.42
2022-12-19T22:32:10.776Z,47.42
2022-12-19T22:34:38.089Z,52.08
2022-12-19T22:37:10.783Z,49.38
2022-12-19T22:39:37.627Z,42.95
2022-12-19T22:42:10.764Z,47.55
2022-12-19T22:44:37.528Z,46.60
2022-12-19T22:47:10.818Z,46.22
2022-12-19T22:49:37.489Z,41.92
2022-12-19T22:52:04.426Z,47.92
2022-12-19T22:54:37.738Z,48.28
2022-12-19T22:57:04.368Z,44.78
2022-12-19T22:59:37.746Z,40.78
2022-12-19T23:02:11.029Z,44.50
2022-12-19T23:04:37.773Z,41.47
2022-12-19T23:07:04.369Z,47.70
2022-12-19T23:09:37.774Z,45.40
2022-12-19T23:12:04.484Z,46.60
2022-12-19T23:14:31.094Z,48.00
2022-12-19T23:17:03.892Z,41.17
2022-12-19T23:19:50.712Z,44.83
2022-12-19T23:22:23.791Z,47.20
2022-12-19T23:24:50.459Z,49.65
2022-12-19T23:27:17.089Z,44.58
2022-12-19T23:29:50.742Z,39.53
2022-12-19T23:32:23.786Z,40.13
2022-12-19T23:34:57.189Z,37.88
2022-12-19T23:37:30.732Z,37.72
2022-12-19T23:39:57.379Z,40.67
2022-12-19T23:42:30.759Z,44.38
2022-12-19T23:44:57.383Z,43.85
2022-12-19T23:47:30.754Z,40.40
2022-12-19T23:49:57.338Z,44.03
2022-12-19T23:52:30.734Z,43.33
2022-12-19T23:55:03.790Z,41.90
2022-12-19T23:57:36.761Z,38.80
